Time;durP1;ratioP1;P1;durP2;ratioP2;P2;SDS_P1;SDS_P2;PMS_P1;PMS_P2;Temp;Humidity;BMP_temperature;BMP_pressure;BME280_temperature;BME280_humidity;BME280_pressure;Samples;Min_cycle;Max_cycle;Signal;HPM_P1;HPM_P2
2023/04/16 00:01:50;;;;;;;31.97;20.53;;;9.30;99.90;;;;;;5083882;28;20662;-79
2023/04/16 00:04:17;;;;;;;26.90;19.20;;;9.30;99.90;;;;;;5089038;28;20579;-81
2023/04/16 00:06:44;;;;;;;30.20;19.77;;;9.40;99.90;;;;;;5092846;28;20195;-81
2023/04/16 00:09:12;;;;;;;30.03;19.87;;;9.30;99.90;;;;;;5091769;28;20352;-81
2023/04/16 00:11:39;;;;;;;34.00;21.47;;;9.30;99.90;;;;;;5083034;28;20218;-80
2023/04/16 00:14:06;;;;;;;33.43;20.67;;;9.30;99.90;;;;;;5081394;28;20226;-81
2023/04/16 00:16:33;;;;;;;31.80;20.30;;;9.30;99.90;;;;;;5080470;28;20308;-78
2023/04/16 00:19:00;;;;;;;32.73;20.50;;;9.30;99.90;;;;;;5080943;28;20293;-79
2023/04/16 00:21:26;;;;;;;31.87;21.47;;;9.30;99.90;;;;;;5081403;28;20198;-78
2023/04/16 00:23:53;;;;;;;34.37;21.77;;;9.30;99.90;;;;;;5081263;28;20238;-79
2023/04/16 00:26:21;;;;;;;32.23;21.83;;;9.20;99.90;;;;;;5081237;28;20202;-80
2023/04/16 00:28:48;;;;;;;33.23;20.20;;;9.20;99.90;;;;;;5080812;28;20198;-80
2023/04/16 00:31:15;;;;;;;30.53;20.03;;;9.20;99.90;;;;;;5084313;28;20228;-79
2023/04/16 00:33:42;;;;;;;31.80;20.67;;;9.10;99.90;;;;;;5079341;28;20214;-79
2023/04/16 00:36:09;;;;;;;30.27;21.30;;;9.20;99.90;;;;;;5080104;28;20232;-80
2023/04/16 00:38:36;;;;;;;33.53;22.60;;;9.20;99.90;;;;;;5079562;28;20206;-81
2023/04/16 00:41:03;;;;;;;32.83;21.57;;;9.20;99.90;;;;;;5079530;28;20205;-81
2023/04/16 00:43:31;;;;;;;31.30;21.20;;;9.20;99.90;;;;;;5079919;28;20206;-81
2023/04/16 00:45:58;;;;;;;32.20;20.80;;;9.10;99.90;;;;;;5080084;28;20239;-80
2023/04/16 00:48:26;;;;;;;36.07;23.27;;;9.10;99.90;;;;;;5079503;28;20577;-80
2023/04/16 00:50:54;;;;;;;31.43;21.40;;;9.10;99.90;;;;;;5081860;28;20208;-81
2023/04/16 00:53:21;;;;;;;32.90;21.47;;;9.10;99.90;;;;;;5082051;28;20686;-80
2023/04/16 00:55:48;;;;;;;32.30;20.93;;;9.10;99.90;;;;;;5082397;28;20312;-81
2023/04/16 00:58:15;;;;;;;33.20;22.27;;;9.10;99.90;;;;;;5083846;28;20202;-80
2023/04/16 01:00:43;;;;;;;31.73;21.03;;;9.00;99.90;;;;;;5083187;28;20256;-79
2023/04/16 01:03:10;;;;;;;33.83;22.77;;;9.10;99.90;;;;;;5082287;28;20278;-81
2023/04/16 01:05:37;;;;;;;32.87;21.40;;;9.10;99.90;;;;;;5083344;28;20309;-81
2023/04/16 01:08:05;;;;;;;32.17;21.77;;;9.10;99.90;;;;;;5084009;28;20202;-80
2023/04/16 01:10:31;;;;;;;32.27;22.43;;;9.10;99.90;;;;;;5080848;28;20236;-80
2023/04/16 01:12:58;;;;;;;32.73;21.70;;;9.10;99.90;;;;;;5082840;28;20285;-79
2023/04/16 01:15:25;;;;;;;31.53;22.07;;;9.10;99.90;;;;;;5082969;28;20229;-78
2023/04/16 01:17:53;;;;;;;30.90;19.87;;;9.10;99.90;;;;;;5081605;28;20202;-79
2023/04/16 01:20:20;;;;;;;33.43;20.93;;;9.00;99.90;;;;;;5081253;28;20564;-80
2023/04/16 01:22:48;;;;;;;34.57;21.00;;;9.10;99.90;;;;;;5081371;28;20212;-81
2023/04/16 01:25:15;;;;;;;31.47;20.33;;;9.10;99.90;;;;;;5082895;28;20228;-81
2023/04/16 01:27:42;;;;;;;34.37;22.90;;;9.00;99.90;;;;;;5079043;28;20294;-80
2023/04/16 01:30:09;;;;;;;35.00;22.70;;;9.00;99.90;;;;;;5079712;28;20206;-81
2023/04/16 01:32:36;;;;;;;36.03;23.13;;;9.00;99.90;;;;;;5079879;28;20201;-80
2023/04/16 01:35:03;;;;;;;36.97;22.17;;;9.00;99.90;;;;;;5082315;28;20309;-82
2023/04/16 01:37:31;;;;;;;36.50;22.43;;;8.90;99.90;;;;;;5080834;28;20261;-80
2023/04/16 01:39:59;;;;;;;34.33;22.17;;;8.90;99.90;;;;;;5082673;28;20217;-79
2023/04/16 01:42:26;;;;;;;34.20;22.20;;;8.90;99.90;;;;;;5082149;28;20202;-81
2023/04/16 01:44:53;;;;;;;34.77;22.23;;;8.90;99.90;;;;;;5082709;28;20233;-80
2023/04/16 01:47:20;;;;;;;35.10;22.37;;;8.90;99.90;;;;;;5083459;28;20202;-81
2023/04/16 01:49:47;;;;;;;33.57;21.87;;;8.90;99.90;;;;;;5080496;28;20226;-79
2023/04/16 01:52:14;;;;;;;35.87;22.33;;;8.90;99.90;;;;;;5081304;28;20204;-79
2023/04/16 01:54:40;;;;;;;33.00;21.93;;;8.90;99.90;;;;;;5079869;28;20257;-81
2023/04/16 01:57:09;;;;;;;34.43;21.23;;;8.90;99.90;;;;;;5082044;28;20305;-79
2023/04/16 01:59:36;;;;;;;34.73;20.93;;;8.90;99.90;;;;;;5099050;28;20227;-80
2023/04/16 02:02:09;;;;;;;36.03;22.43;;;8.90;99.90;;;;;;5093650;28;20284;-80
2023/04/16 02:04:37;;;;;;;34.63;21.93;;;8.80;99.90;;;;;;5102577;28;20227;-80
2023/04/16 02:07:04;;;;;;;37.80;22.37;;;8.90;99.90;;;;;;5103346;28;20197;-81
2023/04/16 02:09:31;;;;;;;37.37;23.17;;;8.80;99.90;;;;;;5102641;28;20211;-81
2023/04/16 02:11:58;;;;;;;35.50;22.07;;;8.80;99.90;;;;;;5104690;28;20209;-80
2023/04/16 02:14:26;;;;;;;35.73;22.30;;;8.80;99.90;;;;;;5103570;28;20221;-81
2023/04/16 02:16:53;;;;;;;34.80;22.37;;;8.80;99.90;;;;;;5103788;28;20274;-81
2023/04/16 02:19:20;;;;;;;32.50;21.93;;;8.70;99.90;;;;;;5103228;28;20208;-79
2023/04/16 02:21:47;;;;;;;36.53;22.33;;;8.70;99.90;;;;;;5102668;28;20619;-81
2023/04/16 02:24:14;;;;;;;33.20;21.93;;;8.70;99.90;;;;;;5101378;28;20257;-78
2023/04/16 02:26:41;;;;;;;35.77;22.67;;;8.70;99.90;;;;;;5103759;28;20269;-81
2023/04/16 02:29:08;;;;;;;35.97;22.93;;;8.60;99.90;;;;;;5102700;28;20202;-81
2023/04/16 02:31:37;;;;;;;35.33;22.17;;;8.60;99.90;;;;;;5103645;28;20225;-81
2023/04/16 02:34:04;;;;;;;36.27;23.33;;;8.50;99.90;;;;;;5103533;28;20240;-80
2023/04/16 02:36:31;;;;;;;38.00;22.57;;;8.50;99.90;;;;;;5106362;28;20275;-79
2023/04/16 02:38:58;;;;;;;36.80;23.10;;;8.50;99.90;;;;;;5106362;28;20202;-81
2023/04/16 02:41:25;;;;;;;35.43;22.37;;;8.50;99.90;;;;;;5106673;28;20272;-78
2023/04/16 02:43:52;;;;;;;39.73;24.10;;;8.60;99.90;;;;;;5106508;28;20594;-80
2023/04/16 02:46:18;;;;;;;38.07;23.77;;;8.40;99.90;;;;;;5106349;28;20207;-80
2023/04/16 02:48:47;;;;;;;40.43;24.00;;;8.30;99.90;;;;;;5105047;28;20204;-80
2023/04/16 02:51:13;;;;;;;43.53;24.43;;;8.20;99.90;;;;;;5105604;28;20201;-79
2023/04/16 02:53:44;;;;;;;39.40;23.70;;;8.30;99.90;;;;;;5105221;28;20613;-80
2023/04/16 02:56:11;;;;;;;38.30;24.00;;;8.30;99.90;;;;;;5105978;28;20210;-79
2023/04/16 02:58:38;;;;;;;40.17;23.87;;;8.30;99.90;;;;;;5107366;28;20265;-78
2023/04/16 03:01:05;;;;;;;38.90;23.17;;;8.30;99.90;;;;;;5105789;28;20208;-80
2023/04/16 03:03:32;;;;;;;37.30;22.33;;;8.20;99.90;;;;;;5104961;28;20289;-79
2023/04/16 03:06:00;;;;;;;39.67;23.30;;;8.20;99.90;;;;;;5103141;28;20249;-81
2023/04/16 03:08:26;;;;;;;39.10;22.43;;;8.20;99.90;;;;;;5103823;28;20205;-80
2023/04/16 03:10:53;;;;;;;37.23;22.83;;;8.20;99.90;;;;;;5103762;28;20273;-81
2023/04/16 03:13:20;;;;;;;39.57;23.23;;;8.20;99.90;;;;;;5102634;28;20201;-79
2023/04/16 03:15:49;;;;;;;33.83;21.93;;;8.10;99.90;;;;;;5103702;28;20598;-81
2023/04/16 03:18:16;;;;;;;41.17;23.03;;;8.10;99.90;;;;;;5105110;28;20232;-81
2023/04/16 03:20:43;;;;;;;38.20;21.93;;;8.00;99.90;;;;;;5103477;28;20201;-79
2023/04/16 03:23:11;;;;;;;35.97;22.03;;;8.10;99.90;;;;;;5105344;28;20288;-80
2023/04/16 03:25:39;;;;;;;36.67;21.67;;;8.00;99.90;;;;;;5103865;28;20229;-79
2023/04/16 03:28:06;;;;;;;34.83;22.60;;;8.00;99.90;;;;;;5105095;28;20205;-79
2023/04/16 03:30:32;;;;;;;35.53;22.37;;;8.00;99.90;;;;;;5104314;28;20202;-79
2023/04/16 03:33:00;;;;;;;39.53;23.43;;;8.10;99.90;;;;;;5104630;28;20229;-79
2023/04/16 03:35:26;;;;;;;41.33;24.33;;;8.10;99.90;;;;;;5106232;28;20595;-81
2023/04/16 03:37:53;;;;;;;37.33;22.77;;;7.90;99.90;;;;;;5106050;28;20271;-78
2023/04/16 03:40:21;;;;;;;37.23;22.33;;;8.00;99.90;;;;;;5104720;28;20693;-80
2023/04/16 03:42:48;;;;;;;36.73;22.17;;;7.90;99.90;;;;;;5104248;28;20625;-79
2023/04/16 03:45:15;;;;;;;37.10;22.60;;;8.00;99.90;;;;;;5104615;28;20559;-80
2023/04/16 03:47:42;;;;;;;34.30;20.70;;;8.00;99.90;;;;;;5097452;28;20202;-81
2023/04/16 03:50:10;;;;;;;36.30;21.33;;;8.00;99.90;;;;;;5097885;28;20288;-81
2023/04/16 03:52:37;;;;;;;35.53;23.63;;;8.00;99.90;;;;;;5105799;28;20269;-81
2023/04/16 03:55:04;;;;;;;36.10;21.37;;;7.90;99.90;;;;;;5104652;28;20237;-81
2023/04/16 03:57:32;;;;;;;37.50;21.50;;;7.80;99.90;;;;;;5103399;28;20230;-80
2023/04/16 03:59:59;;;;;;;35.70;21.30;;;7.80;99.90;;;;;;5104151;28;20212;-81
2023/04/16 04:02:26;;;;;;;40.00;22.17;;;7.80;99.90;;;;;;5103196;28;20202;-81
2023/04/16 04:04:53;;;;;;;38.87;22.47;;;7.70;99.90;;;;;;5093203;28;20222;-80
2023/04/16 04:07:19;;;;;;;35.87;21.27;;;7.80;99.90;;;;;;5091332;28;20194;-81
2023/04/16 04:09:46;;;;;;;36.87;21.13;;;7.80;99.90;;;;;;5098909;28;20217;-78
2023/04/16 04:12:13;;;;;;;37.13;22.37;;;7.70;99.90;;;;;;5102117;28;20192;-79
2023/04/16 04:14:41;;;;;;;34.80;21.73;;;7.70;99.90;;;;;;5105424;28;20229;-78
2023/04/16 04:17:09;;;;;;;35.87;21.50;;;7.70;99.90;;;;;;5105174;28;20217;-82
2023/04/16 04:19:36;;;;;;;42.30;22.90;;;7.60;99.90;;;;;;5088857;28;20199;-80
2023/04/16 04:22:03;;;;;;;38.63;21.53;;;7.60;99.90;;;;;;5086603;28;20199;-81
2023/04/16 04:24:30;;;;;;;36.47;21.60;;;7.60;99.90;;;;;;5085985;28;20310;-80
2023/04/16 04:26:57;;;;;;;39.47;22.80;;;7.60;99.90;;;;;;5085644;28;20666;-80
2023/04/16 04:29:24;;;;;;;36.93;22.47;;;7.60;99.90;;;;;;5085410;28;20266;-80
2023/04/16 04:31:53;;;;;;;38.80;22.47;;;7.60;99.90;;;;;;5082735;28;20274;-80
2023/04/16 04:34:20;;;;;;;37.83;21.33;;;7.60;99.90;;;;;;5095383;28;20225;-79
2023/04/16 04:36:47;;;;;;;39.30;22.20;;;7.50;99.90;;;;;;5082042;28;20266;-81
2023/04/16 04:39:14;;;;;;;38.10;22.57;;;7.60;99.90;;;;;;5093872;28;20207;-79
2023/04/16 04:41:41;;;;;;;37.00;21.60;;;7.50;99.90;;;;;;5091457;28;20213;-78
2023/04/16 04:44:08;;;;;;;41.57;22.13;;;7.60;99.90;;;;;;5082354;28;20222;-77
2023/04/16 04:46:34;;;;;;;34.47;20.63;;;7.50;99.90;;;;;;5082467;28;20202;-79
2023/04/16 04:49:03;;;;;;;39.87;22.70;;;7.40;99.90;;;;;;5082664;28;20198;-79
2023/04/16 04:51:30;;;;;;;39.37;21.77;;;7.40;99.90;;;;;;5082197;28;20202;-79
2023/04/16 04:53:56;;;;;;;39.23;21.97;;;7.50;99.90;;;;;;5080309;28;20234;-79
2023/04/16 04:56:23;;;;;;;41.37;23.13;;;7.50;99.90;;;;;;5081175;28;20205;-80
2023/04/16 04:58:51;;;;;;;38.23;22.43;;;7.50;99.90;;;;;;5082649;28;20248;-81
2023/04/16 05:01:18;;;;;;;39.87;21.43;;;7.60;99.90;;;;;;5080541;28;20202;-80
2023/04/16 05:03:44;;;;;;;43.00;22.00;;;7.50;99.90;;;;;;5089124;28;20566;-77
2023/04/16 05:06:12;;;;;;;38.23;22.90;;;7.50;99.90;;;;;;5099737;28;20202;-79
2023/04/16 05:08:39;;;;;;;38.07;20.70;;;7.40;99.90;;;;;;5101676;28;20292;-79
2023/04/16 05:11:06;;;;;;;38.80;21.97;;;7.40;99.90;;;;;;5102018;28;20283;-80
2023/04/16 05:13:33;;;;;;;35.63;21.57;;;7.50;99.90;;;;;;5101931;28;20286;-78
2023/04/16 05:16:00;;;;;;;36.43;20.07;;;7.50;99.90;;;;;;5085566;28;20605;-81
2023/04/16 05:18:26;;;;;;;39.00;21.33;;;7.50;99.90;;;;;;5083580;28;20226;-79
2023/04/16 05:20:53;;;;;;;37.87;22.17;;;7.60;99.90;;;;;;5084496;28;20206;-79
2023/04/16 05:23:21;;;;;;;30.67;20.17;;;7.50;99.90;;;;;;5081973;28;20198;-80
2023/04/16 05:25:48;;;;;;;33.43;20.97;;;7.50;99.90;;;;;;5081509;28;20222;-80
2023/04/16 05:28:15;;;;;;;34.03;20.20;;;7.50;99.90;;;;;;5090984;28;20197;-80
2023/04/16 05:30:42;;;;;;;36.43;21.33;;;7.60;99.90;;;;;;5101097;28;20201;-80
2023/04/16 05:33:08;;;;;;;37.40;20.80;;;7.60;99.90;;;;;;5101164;28;20215;-80
2023/04/16 05:35:35;;;;;;;37.40;20.60;;;7.60;99.90;;;;;;5101440;28;20221;-79
2023/04/16 05:38:03;;;;;;;38.20;20.27;;;7.60;99.90;;;;;;5082664;28;20229;-77
2023/04/16 05:40:31;;;;;;;33.57;20.63;;;7.60;99.90;;;;;;5094721;28;20228;-77
2023/04/16 05:42:58;;;;;;;34.67;20.83;;;7.60;99.90;;;;;;5092361;28;20205;-77
2023/04/16 05:45:25;;;;;;;39.00;21.20;;;7.60;99.90;;;;;;5083331;28;20313;-79
2023/04/16 05:47:51;;;;;;;37.90;20.80;;;7.70;99.90;;;;;;5081611;28;20300;-81
2023/04/16 05:50:18;;;;;;;35.37;20.87;;;7.70;99.90;;;;;;5102289;28;20235;-79
2023/04/16 05:52:45;;;;;;;40.27;21.13;;;7.60;99.90;;;;;;5102588;28;20206;-79
2023/04/16 05:55:12;;;;;;;34.67;19.90;;;7.80;99.90;;;;;;5090132;28;20222;-81
2023/04/16 05:57:40;;;;;;;37.80;20.70;;;7.60;99.90;;;;;;5081701;28;20702;-79
2023/04/16 06:00:08;;;;;;;35.33;20.50;;;7.70;99.90;;;;;;5083195;28;20199;-79
2023/04/16 06:02:35;;;;;;;34.40;19.53;;;7.60;99.90;;;;;;5086112;28;20254;-79
2023/04/16 06:05:04;;;;;;;37.63;20.93;;;7.70;99.90;;;;;;5085351;28;20220;-78
2023/04/16 06:07:31;;;;;;;35.00;19.67;;;7.70;99.90;;;;;;5085609;28;20202;-81
2023/04/16 06:09:58;;;;;;;38.10;19.33;;;7.70;99.90;;;;;;5103946;28;20268;-81
2023/04/16 06:12:26;;;;;;;30.83;18.77;;;7.70;99.90;;;;;;5093508;28;20209;-80
2023/04/16 06:14:54;;;;;;;35.30;20.67;;;7.70;99.90;;;;;;5087000;28;20212;-79
2023/04/16 06:17:21;;;;;;;31.23;17.70;;;7.80;99.90;;;;;;5091982;28;20225;-78
2023/04/16 06:19:48;;;;;;;33.60;18.70;;;7.80;99.90;;;;;;5108265;28;20196;-78
2023/04/16 06:22:15;;;;;;;35.23;20.07;;;7.80;99.90;;;;;;5107817;28;20257;-78
2023/04/16 06:24:42;;;;;;;39.03;19.90;;;7.90;99.90;;;;;;5097832;28;20225;-78
2023/04/16 06:27:09;;;;;;;34.67;19.27;;;7.80;99.90;;;;;;5103166;28;20617;-79
2023/04/16 06:29:36;;;;;;;29.80;17.83;;;7.90;99.90;;;;;;5099364;28;20201;-81
2023/04/16 06:32:05;;;;;;;36.70;19.70;;;7.90;99.90;;;;;;5089671;28;20209;-80
2023/04/16 06:34:31;;;;;;;32.97;18.40;;;7.90;99.90;;;;;;5093403;28;20222;-79
2023/04/16 06:36:58;;;;;;;31.83;18.10;;;7.90;99.90;;;;;;5089007;28;20210;-79
2023/04/16 06:39:25;;;;;;;34.97;20.23;;;7.90;99.90;;;;;;5101229;28;20255;-79
2023/04/16 06:41:52;;;;;;;33.50;19.77;;;7.90;99.90;;;;;;5106760;28;20288;-82
2023/04/16 06:44:19;;;;;;;34.87;20.77;;;8.00;99.90;;;;;;5088256;28;20635;-80
2023/04/16 06:46:46;;;;;;;29.93;19.33;;;8.00;99.90;;;;;;5087751;28;20226;-80
2023/04/16 06:49:14;;;;;;;32.47;20.20;;;8.00;99.90;;;;;;5086650;28;20285;-78
2023/04/16 06:51:41;;;;;;;33.07;19.33;;;8.10;99.90;;;;;;5101505;28;20243;-79
2023/04/16 06:54:08;;;;;;;30.73;18.97;;;8.00;99.90;;;;;;5107235;28;20245;-82
2023/04/16 06:56:36;;;;;;;31.10;18.40;;;8.00;99.90;;;;;;5098776;28;20190;-80
2023/04/16 06:59:03;;;;;;;31.20;18.13;;;8.20;99.90;;;;;;5094493;28;20213;-81
2023/04/16 07:01:30;;;;;;;32.43;19.30;;;8.20;99.90;;;;;;5103756;28;20202;-79
2023/04/16 07:03:57;;;;;;;28.43;17.00;;;8.20;99.90;;;;;;5095218;28;20228;-78
2023/04/16 07:06:25;;;;;;;32.83;18.57;;;8.20;99.90;;;;;;5086514;28;20214;-78
2023/04/16 07:08:52;;;;;;;34.70;17.43;;;8.20;99.90;;;;;;5084905;28;20195;-78
2023/04/16 07:11:19;;;;;;;32.90;18.07;;;8.30;99.90;;;;;;5082568;28;20214;-76
2023/04/16 07:13:46;;;;;;;31.63;18.03;;;8.30;99.90;;;;;;5083616;28;20209;-78
2023/04/16 07:16:13;;;;;;;28.87;17.97;;;8.30;99.90;;;;;;5084903;28;20206;-79
2023/04/16 07:18:40;;;;;;;29.37;17.40;;;8.30;99.90;;;;;;5084880;28;20226;-79
2023/04/16 07:21:06;;;;;;;30.03;18.07;;;8.30;99.90;;;;;;5083487;28;20202;-79
2023/04/16 07:23:34;;;;;;;29.03;17.47;;;8.40;99.90;;;;;;5085348;28;20200;-80
2023/04/16 07:26:01;;;;;;;29.13;17.83;;;8.40;99.90;;;;;;5094898;28;20221;-79
2023/04/16 07:28:28;;;;;;;30.47;16.87;;;8.30;99.90;;;;;;5091180;28;20563;-77
2023/04/16 07:30:55;;;;;;;28.80;17.33;;;8.40;99.90;;;;;;5101579;28;20208;-79
2023/04/16 07:33:22;;;;;;;30.50;18.07;;;8.40;99.90;;;;;;5104486;28;20274;-79
2023/04/16 07:35:49;;;;;;;28.67;16.63;;;8.50;99.90;;;;;;5104579;28;20603;-76
2023/04/16 07:38:15;;;;;;;31.17;17.47;;;8.50;99.90;;;;;;5102879;28;20577;-79
2023/04/16 07:40:44;;;;;;;27.03;16.47;;;8.50;99.90;;;;;;5104078;28;20198;-81
2023/04/16 07:43:10;;;;;;;26.37;16.33;;;8.50;99.90;;;;;;5102836;28;20202;-81
2023/04/16 07:45:37;;;;;;;28.73;17.40;;;8.60;99.90;;;;;;5103629;28;20224;-79
2023/04/16 07:48:06;;;;;;;26.23;15.63;;;8.60;99.90;;;;;;5101799;28;20194;-80
2023/04/16 07:50:32;;;;;;;27.17;16.70;;;8.60;99.90;;;;;;5102235;28;20645;-82
2023/04/16 07:52:59;;;;;;;28.10;16.80;;;8.60;99.90;;;;;;5100794;28;20201;-77
2023/04/16 07:55:26;;;;;;;28.53;16.60;;;8.70;99.90;;;;;;5104521;28;20222;-80
2023/04/16 07:57:55;;;;;;;29.50;16.80;;;8.70;99.90;;;;;;5104359;28;20222;-82
2023/04/16 08:00:22;;;;;;;29.40;16.83;;;8.70;99.90;;;;;;5104126;28;20576;-78
2023/04/16 08:02:49;;;;;;;27.70;16.23;;;8.80;99.90;;;;;;5098937;28;20194;-79
2023/04/16 08:05:16;;;;;;;24.77;15.90;;;8.90;99.90;;;;;;5099156;28;20233;-77
2023/04/16 08:07:42;;;;;;;29.23;16.80;;;8.90;99.90;;;;;;5103547;28;20669;-78
2023/04/16 08:10:10;;;;;;;26.57;16.13;;;8.90;99.90;;;;;;5093766;28;20308;-78
2023/04/16 08:12:36;;;;;;;25.80;16.00;;;9.00;99.90;;;;;;5086222;28;20293;-78
2023/04/16 08:15:06;;;;;;;24.63;15.20;;;9.10;99.90;;;;;;5101218;28;20229;-78
2023/04/16 08:17:33;;;;;;;25.43;15.13;;;9.10;99.90;;;;;;5102024;28;20209;-77
2023/04/16 08:20:00;;;;;;;28.50;15.87;;;9.10;99.90;;;;;;5093981;28;20226;-79
2023/04/16 08:22:27;;;;;;;26.77;16.13;;;9.10;99.90;;;;;;5081383;28;20209;-77
2023/04/16 08:24:54;;;;;;;25.70;15.53;;;9.10;99.90;;;;;;5080210;28;20287;-78
2023/04/16 08:27:21;;;;;;;27.47;16.63;;;9.10;99.90;;;;;;5084239;28;20232;-79
2023/04/16 08:29:48;;;;;;;26.27;16.47;;;9.10;99.90;;;;;;5101781;28;20201;-80
2023/04/16 08:32:16;;;;;;;25.43;16.80;;;9.20;99.90;;;;;;5095606;28;20211;-80
2023/04/16 08:34:43;;;;;;;30.13;16.73;;;9.30;99.90;;;;;;5089578;28;20217;-77
2023/04/16 08:37:10;;;;;;;26.23;15.80;;;9.20;99.90;;;;;;5091422;28;20233;-79
2023/04/16 08:39:37;;;;;;;28.47;16.53;;;9.20;99.90;;;;;;5096320;28;20226;-80
2023/04/16 08:42:06;;;;;;;28.40;16.33;;;9.30;99.90;;;;;;5086346;28;20202;-79
2023/04/16 08:44:37;;;;;;;26.30;16.37;;;9.30;99.90;;;;;;5089978;28;20292;-79
2023/04/16 08:47:07;;;;;;;27.07;15.83;;;9.30;99.90;;;;;;5101266;28;20221;-78
2023/04/16 08:49:38;;;;;;;27.60;15.43;;;9.40;99.90;;;;;;5095969;28;20197;-79
2023/04/16 08:52:08;;;;;;;26.07;16.40;;;9.60;99.90;;;;;;5085321;28;20248;-79
2023/04/16 08:54:42;;;;;;;26.27;15.27;;;9.50;99.90;;;;;;5092626;28;20271;-80
2023/04/16 08:57:11;;;;;;;25.90;16.53;;;9.80;99.90;;;;;;5083755;28;20183;-79
2023/04/16 08:59:38;;;;;;;27.90;15.57;;;9.90;99.90;;;;;;5093702;28;20313;-78
2023/04/16 09:02:06;;;;;;;27.47;16.67;;;9.90;99.90;;;;;;5085294;28;20202;-79
2023/04/16 09:04:36;;;;;;;29.60;15.90;;;9.80;99.90;;;;;;5091178;28;20308;-77
2023/04/16 09:07:07;;;;;;;26.57;16.50;;;9.80;99.90;;;;;;5093068;28;20293;-76
2023/04/16 09:09:35;;;;;;;26.33;16.10;;;9.70;99.90;;;;;;5082646;28;20284;-79
2023/04/16 09:12:01;;;;;;;27.63;17.00;;;9.70;99.90;;;;;;5093209;28;20206;-78
2023/04/16 09:14:29;;;;;;;26.00;15.60;;;9.80;99.90;;;;;;5101754;28;20235;-79
2023/04/16 09:16:59;;;;;;;26.90;15.63;;;9.80;99.90;;;;;;5098437;28;20212;-79
2023/04/16 09:19:26;;;;;;;26.93;16.13;;;9.80;99.90;;;;;;5084703;28;20214;-78
2023/04/16 09:21:54;;;;;;;29.40;17.20;;;9.80;99.90;;;;;;5097568;28;20197;-77
2023/04/16 09:24:22;;;;;;;23.93;14.30;;;9.90;99.90;;;;;;5095043;28;20713;-79
2023/04/16 09:26:51;;;;;;;28.03;15.90;;;9.90;99.90;;;;;;5091435;28;20202;-80
2023/04/16 09:29:35;;;;;;;27.57;15.73;;;9.80;99.90;;;;;;5085788;28;20202;-79
2023/04/16 09:32:03;;;;;;;26.27;15.27;;;9.90;99.90;;;;;;5083761;28;20186;-78
2023/04/16 09:34:31;;;;;;;29.30;17.43;;;9.80;99.90;;;;;;5092567;28;20217;-78
2023/04/16 09:37:15;;;;;;;25.20;15.30;;;9.90;99.90;;;;;;5098706;28;20202;-77
2023/04/16 09:39:42;;;;;;;25.40;15.73;;;9.90;99.90;;;;;;5083484;28;20685;-78
2023/04/16 09:42:09;;;;;;;26.00;15.80;;;9.90;99.90;;;;;;5103674;28;20202;-77
2023/04/16 09:44:37;;;;;;;25.90;15.63;;;10.00;99.90;;;;;;5097581;28;20690;-77
2023/04/16 09:47:07;;;;;;;24.67;15.13;;;10.00;99.90;;;;;;5104679;28;20254;-81
2023/04/16 09:49:35;;;;;;;25.50;15.13;;;10.00;99.90;;;;;;5097003;28;20259;-80
2023/04/16 09:52:08;;;;;;;26.57;15.73;;;10.00;99.90;;;;;;5086718;28;20470;-80
2023/04/16 09:54:35;;;;;;;25.30;15.07;;;10.00;99.90;;;;;;5083028;28;20253;-80
2023/04/16 09:57:03;;;;;;;25.83;15.03;;;9.90;99.90;;;;;;5082179;28;20208;-77
2023/04/16 09:59:32;;;;;;;29.07;16.20;;;9.90;99.90;;;;;;5084542;28;20571;-80
2023/04/16 10:02:00;;;;;;;24.97;16.07;;;9.80;99.90;;;;;;5101840;28;20197;-80
2023/04/16 10:04:27;;;;;;;23.30;14.90;;;9.90;99.90;;;;;;5102588;28;20225;-79
2023/04/16 10:07:04;;;;;;;25.37;15.03;;;9.80;99.90;;;;;;5103048;28;20285;-80
2023/04/16 10:09:33;;;;;;;31.13;16.53;;;9.80;99.90;;;;;;5093344;28;20205;-78
2023/04/16 10:12:00;;;;;;;27.10;15.70;;;9.90;99.90;;;;;;5102225;28;20201;-78
2023/04/16 10:14:27;;;;;;;26.90;15.47;;;9.80;99.90;;;;;;5103740;28;20550;-79
2023/04/16 10:16:55;;;;;;;27.03;15.97;;;9.80;99.90;;;;;;5103183;28;20296;-78
2023/04/16 10:19:22;;;;;;;28.10;17.17;;;9.80;99.90;;;;;;5096672;28;20226;-82
2023/04/16 10:21:49;;;;;;;29.70;17.00;;;9.70;99.90;;;;;;5087376;28;20726;-77
2023/04/16 10:24:18;;;;;;;27.60;16.97;;;9.70;99.90;;;;;;5082346;28;20309;-78
2023/04/16 10:26:45;;;;;;;26.53;16.37;;;9.70;99.90;;;;;;5083383;28;20270;-79
2023/04/16 10:29:12;;;;;;;27.17;17.10;;;9.70;99.90;;;;;;5082230;28;20213;-78
2023/04/16 10:31:40;;;;;;;26.80;16.93;;;9.60;99.90;;;;;;5085130;28;20189;-80
2023/04/16 10:34:08;;;;;;;29.17;16.63;;;9.80;99.90;;;;;;5101017;28;20242;-77
2023/04/16 10:36:37;;;;;;;29.30;17.80;;;9.70;99.90;;;;;;5097128;28;20204;-79
2023/04/16 10:39:04;;;;;;;28.27;17.67;;;9.70;99.90;;;;;;5080424;28;20559;-81
2023/04/16 10:41:33;;;;;;;28.50;16.33;;;9.70;99.90;;;;;;5080528;28;20237;-80
2023/04/16 10:44:09;;;;;;;27.93;17.13;;;9.70;99.90;;;;;;5080686;28;20196;-79
2023/04/16 10:46:38;;;;;;;27.33;16.73;;;9.70;99.90;;;;;;5079172;28;20209;-81
2023/04/16 10:49:13;;;;;;;26.77;16.60;;;9.60;99.90;;;;;;5081923;28;20209;-80
2023/04/16 10:51:41;;;;;;;28.93;18.10;;;9.50;99.90;;;;;;5082786;28;20186;-79
2023/04/16 10:54:21;;;;;;;27.20;18.67;;;9.50;99.90;;;;;;5098772;28;20312;-79
2023/04/16 10:56:50;;;;;;;31.67;17.63;;;9.40;99.90;;;;;;5104025;28;20186;-80
2023/04/16 10:59:19;;;;;;;30.00;18.47;;;9.30;99.90;;;;;;5107530;28;20285;-79
2023/04/16 11:01:47;;;;;;;27.17;18.10;;;9.40;99.90;;;;;;5106226;28;20261;-78
2023/04/16 11:04:33;;;;;;;28.63;18.00;;;9.40;99.90;;;;;;5105585;28;20221;-81
2023/04/16 11:07:02;;;;;;;26.33;17.37;;;9.30;99.90;;;;;;5095941;28;20202;-80
2023/04/16 11:09:53;;;;;;;30.90;18.20;;;9.30;99.90;;;;;;5101018;28;20195;-79
2023/04/16 11:12:22;;;;;;;31.00;18.33;;;9.30;99.90;;;;;;5103530;28;20193;-79
2023/04/16 11:14:51;;;;;;;28.20;17.57;;;9.30;99.90;;;;;;5104637;28;20221;-78
2023/04/16 11:17:18;;;;;;;29.17;18.53;;;9.20;99.90;;;;;;5091797;28;20210;-77
2023/04/16 11:19:45;;;;;;;27.67;18.23;;;9.20;99.90;;;;;;5098940;28;20220;-78
2023/04/16 11:22:17;;;;;;;27.13;19.07;;;9.30;99.90;;;;;;5105187;28;20206;-78
2023/04/16 11:24:45;;;;;;;28.83;18.50;;;9.20;99.90;;;;;;5106960;28;20217;-79
2023/04/16 11:27:14;;;;;;;30.87;19.20;;;9.00;99.90;;;;;;5104992;28;20727;-78
2023/04/16 11:29:42;;;;;;;30.83;20.60;;;9.00;99.90;;;;;;5095344;28;20591;-79
2023/04/16 11:32:09;;;;;;;30.07;19.03;;;9.00;99.90;;;;;;5097696;28;20266;-78
2023/04/16 11:34:44;;;;;;;28.50;19.67;;;9.00;99.90;;;;;;5098955;28;20218;-79
2023/04/16 11:37:11;;;;;;;32.07;20.33;;;8.90;99.90;;;;;;5094934;28;20653;-78
2023/04/16 11:39:48;;;;;;;30.57;19.77;;;8.80;99.90;;;;;;5099158;28;20293;-78
2023/04/16 11:42:20;;;;;;;29.40;20.10;;;8.90;99.90;;;;;;5101481;28;20209;-78
2023/04/16 11:44:52;;;;;;;30.90;20.10;;;8.90;99.90;;;;;;5103613;28;20221;-78
2023/04/16 11:47:18;;;;;;;28.27;19.53;;;8.80;99.90;;;;;;5091185;28;20209;-79
2023/04/16 11:49:46;;;;;;;27.47;20.07;;;8.80;99.90;;;;;;5089258;28;20198;-79
2023/04/16 11:52:12;;;;;;;27.70;18.73;;;9.00;99.90;;;;;;5103823;28;20202;-79
2023/04/16 11:54:39;;;;;;;29.00;19.03;;;8.70;99.90;;;;;;5084366;28;20222;-78
2023/04/16 11:57:06;;;;;;;29.67;20.37;;;8.60;99.90;;;;;;5093090;28;20225;-80
2023/04/16 11:59:33;;;;;;;30.53;20.30;;;8.70;99.90;;;;;;5107209;28;20225;-77
2023/04/16 12:02:01;;;;;;;31.53;22.07;;;8.70;99.90;;;;;;5103995;28;20269;-79
2023/04/16 12:04:29;;;;;;;30.30;20.70;;;8.80;99.90;;;;;;5106605;28;20320;-79
2023/04/16 12:07:08;;;;;;;32.27;21.20;;;8.80;99.90;;;;;;5105498;28;20570;-78
2023/04/16 12:09:36;;;;;;;32.07;21.37;;;8.80;99.90;;;;;;5097615;28;20285;-80
2023/04/16 12:12:03;;;;;;;33.17;21.50;;;8.90;99.90;;;;;;5088689;28;20289;-79
2023/04/16 12:14:30;;;;;;;30.40;20.83;;;8.80;99.90;;;;;;5106315;28;20288;-78
2023/04/16 12:17:16;;;;;;;31.27;21.07;;;8.90;99.90;;;;;;5094499;28;20207;-78
2023/04/16 12:19:52;;;;;;;30.43;21.23;;;9.00;99.90;;;;;;5098165;28;20435;-79
2023/04/16 12:22:27;;;;;;;30.97;21.23;;;8.80;99.90;;;;;;5097701;28;20205;-79
2023/04/16 12:24:58;;;;;;;30.63;20.87;;;8.80;99.90;;;;;;5105848;28;20284;-77
2023/04/16 12:27:27;;;;;;;31.17;20.97;;;8.90;99.90;;;;;;5106102;28;20201;-77
2023/04/16 12:30:06;;;;;;;31.07;20.47;;;8.90;99.90;;;;;;5106579;28;20200;-80
2023/04/16 12:32:33;;;;;;;31.93;21.53;;;8.90;99.90;;;;;;5092079;28;20198;-79
2023/04/16 12:35:01;;;;;;;31.00;22.40;;;9.00;99.90;;;;;;5095859;28;20226;-79
2023/04/16 12:37:28;;;;;;;32.70;21.13;;;9.00;99.90;;;;;;5095850;28;20265;-77
2023/04/16 12:39:55;;;;;;;31.90;21.53;;;9.00;99.90;;;;;;5101965;28;20228;-79